createdAt,value
2022-09-09T00:00:53.997Z,13.60
2022-09-09T00:04:23.820Z,13.70
2022-09-09T00:07:47.871Z,13.60
2022-09-09T00:11:12.500Z,13.70
2022-09-09T00:14:38.349Z,13.60
2022-09-09T00:18:04.356Z,13.60
2022-09-09T00:21:31.593Z,13.50
2022-09-09T00:24:53.960Z,13.60
2022-09-09T00:28:19.078Z,13.60
2022-09-09T00:31:40.660Z,13.60
2022-09-09T00:35:04.251Z,13.50
2022-09-09T00:38:32.064Z,13.60
2022-09-09T00:42:00.115Z,13.70
2022-09-09T00:45:29.889Z,13.80
2022-09-09T00:48:55.233Z,13.90
2022-09-09T00:52:22.384Z,13.90
2022-09-09T00:55:48.677Z,14.00
2022-09-09T00:59:17.656Z,14.00
2022-09-09T01:02:40.846Z,14.00
2022-09-09T01:06:05.457Z,14.00
2022-09-09T01:09:28.649Z,14.00
2022-09-09T01:12:52.969Z,14.00
2022-09-09T01:16:14.939Z,13.90
2022-09-09T01:19:41.875Z,13.90
2022-09-09T01:23:13.431Z,13.90
2022-09-09T01:26:38.115Z,13.90
2022-09-09T01:29:59.715Z,13.90
2022-09-09T01:33:21.456Z,13.80
2022-09-09T01:36:45.274Z,13.80
2022-09-09T01:40:07.499Z,13.70
2022-09-09T01:43:30.712Z,13.60
2022-09-09T01:46:52.418Z,13.60
2022-09-09T01:50:15.259Z,13.60
2022-09-09T01:53:36.855Z,13.60
2022-09-09T01:57:01.308Z,13.60
2022-09-09T02:00:24.260Z,13.60
2022-09-09T02:03:52.181Z,13.50
2022-09-09T02:07:18.343Z,13.50
2022-09-09T02:10:43.465Z,13.40
2022-09-09T02:14:07.076Z,13.40
2022-09-09T02:17:31.450Z,13.40
2022-09-09T02:20:54.090Z,13.40
2022-09-09T02:24:16.353Z,13.40
2022-09-09T02:27:37.928Z,13.40
2022-09-09T02:30:59.985Z,13.40
2022-09-09T02:34:24.418Z,13.40
2022-09-09T02:37:46.143Z,13.40
2022-09-09T02:41:07.762Z,13.30
2022-09-09T02:44:29.448Z,13.30
2022-09-09T02:47:52.946Z,13.20
2022-09-09T02:51:19.562Z,13.20
2022-09-09T02:54:41.219Z,13.20
2022-09-09T02:58:04.121Z,13.30
2022-09-09T03:01:25.954Z,13.30
2022-09-09T03:04:47.544Z,13.30
2022-09-09T03:08:10.633Z,13.30
2022-09-09T03:11:32.216Z,13.50
2022-09-09T03:14:53.811Z,13.60
2022-09-09T03:18:15.413Z,13.60
2022-09-09T03:21:36.971Z,13.70
2022-09-09T03:24:59.902Z,13.70
2022-09-09T03:28:21.478Z,13.70
2022-09-09T03:31:43.122Z,13.60
2022-09-09T03:35:05.063Z,13.50
2022-09-09T03:38:26.902Z,13.40
2022-09-09T03:41:49.812Z,13.40
2022-09-09T03:45:11.410Z,13.40
2022-09-09T03:48:33.019Z,13.30
2022-09-09T03:51:54.715Z,13.40
2022-09-09T03:55:16.489Z,13.40
2022-09-09T03:58:39.396Z,13.50
2022-09-09T04:02:01.034Z,13.50
2022-09-09T04:05:22.641Z,13.50
2022-09-09T04:08:44.242Z,13.60
2022-09-09T04:12:05.953Z,13.60
2022-09-09T04:15:28.904Z,13.60
2022-09-09T04:18:52.224Z,13.60
2022-09-09T04:22:13.834Z,13.70
2022-09-09T04:25:35.441Z,13.60
2022-09-09T04:28:57.022Z,13.60
2022-09-09T04:32:19.924Z,13.60
2022-09-09T04:35:45.001Z,13.60
2022-09-09T04:39:06.701Z,13.60
2022-09-09T04:42:28.296Z,13.60
2022-09-09T04:45:51.036Z,13.70
2022-09-09T04:49:15.295Z,13.80
2022-09-09T04:52:37.006Z,13.90
2022-09-09T04:56:02.412Z,14.00
2022-09-09T04:59:23.992Z,14.10
2022-09-09T05:02:45.575Z,14.10
2022-09-09T05:06:09.457Z,14.10
2022-09-09T05:09:31.063Z,14.10
2022-09-09T05:12:53.150Z,14.20
2022-09-09T05:16:15.178Z,14.20
2022-09-09T05:19:37.193Z,14.30
2022-09-09T05:23:00.107Z,14.30
2022-09-09T05:26:22.461Z,14.40
2022-09-09T05:29:44.048Z,14.60
2022-09-09T05:33:05.617Z,14.70
2022-09-09T05:36:27.220Z,14.90
2022-09-09T05:39:50.270Z,15.10
2022-09-09T05:43:11.925Z,15.30
2022-09-09T05:46:33.573Z,15.60
2022-09-09T05:49:55.505Z,15.90
2022-09-09T05:53:17.193Z,16.20
2022-09-09T05:56:40.121Z,16.60
2022-09-09T06:00:02.010Z,16.70
2022-09-09T06:03:23.606Z,16.50
2022-09-09T06:06:45.261Z,16.40
2022-09-09T06:10:07.324Z,16.20
2022-09-09T06:13:30.277Z,16.10
2022-09-09T06:16:51.917Z,16.20
2022-09-09T06:20:13.592Z,16.20
2022-09-09T06:23:35.366Z,16.20
2022-09-09T06:26:56.956Z,16.30
2022-09-09T06:30:19.922Z,16.50
2022-09-09T06:33:42.159Z,16.70
2022-09-09T06:37:03.756Z,16.90
2022-09-09T06:40:25.487Z,17.00
2022-09-09T06:43:47.512Z,17.10
2022-09-09T06:47:10.473Z,17.10
2022-09-09T06:50:32.099Z,17.20
2022-09-09T06:53:54.684Z,17.40
2022-09-09T06:57:35.831Z,17.60
2022-09-09T07:01:04.755Z,18.00
2022-09-09T07:04:27.796Z,18.30
2022-09-09T07:07:49.355Z,19.60
2022-09-09T07:11:12.569Z,20.10
2022-09-09T07:14:34.235Z,20.90
2022-09-09T07:17:55.803Z,20.80
2022-09-09T07:21:18.721Z,21.20
2022-09-09T07:24:40.293Z,21.10
2022-09-09T07:28:02.056Z,20.80
2022-09-09T07:31:24.542Z,20.50
2022-09-09T07:34:46.131Z,20.60
2022-09-09T07:38:09.033Z,20.70
2022-09-09T07:41:32.593Z,20.90
2022-09-09T07:44:54.156Z,20.40
2022-09-09T07:48:15.700Z,20.20
2022-09-09T07:51:38.623Z,19.90
2022-09-09T07:55:01.715Z,20.40
2022-09-09T07:58:23.303Z,21.00
2022-09-09T08:01:46.055Z,21.80
2022-09-09T08:05:07.918Z,21.30
2022-09-09T08:08:29.688Z,22.00
2022-09-09T08:11:52.908Z,21.90
2022-09-09T08:15:14.600Z,22.00
2022-09-09T08:18:36.329Z,23.10
2022-09-09T08:21:57.889Z,23.50
2022-09-09T08:25:19.522Z,23.70
2022-09-09T08:28:42.708Z,24.00
2022-09-09T08:32:04.397Z,23.30
2022-09-09T08:35:25.949Z,24.60
2022-09-09T08:38:48.472Z,25.80
2022-09-09T08:42:16.376Z,26.40
2022-09-09T08:45:48.425Z,27.10
2022-09-09T08:49:18.382Z,26.80
2022-09-09T08:52:43.525Z,26.80
2022-09-09T08:56:10.123Z,27.80
2022-09-09T08:59:31.701Z,27.10
2022-09-09T09:02:59.278Z,25.30
2022-09-09T09:06:27.644Z,24.30
2022-09-09T09:09:56.255Z,23.30
2022-09-09T09:13:19.055Z,22.90
2022-09-09T09:16:43.973Z,24.50
2022-09-09T09:20:12.614Z,25.60
2022-09-09T09:23:40.089Z,26.90
2022-09-09T09:27:08.144Z,26.90
2022-09-09T09:30:30.923Z,27.90
2022-09-09T09:33:53.325Z,27.80
2022-09-09T09:37:17.669Z,27.80
2022-09-09T09:40:49.041Z,26.90
2022-09-09T09:44:22.732Z,25.30
2022-09-09T09:47:44.296Z,23.60
2022-09-09T09:51:09.135Z,23.00
2022-09-09T09:54:33.729Z,22.30
2022-09-09T09:58:01.335Z,22.50
2022-09-09T10:01:23.893Z,23.20
2022-09-09T10:04:46.009Z,22.50
2022-09-09T10:08:11.691Z,22.20
2022-09-09T10:11:41.372Z,21.90
2022-09-09T10:15:07.770Z,21.80
2022-09-09T10:18:37.397Z,22.70
2022-09-09T10:22:05.612Z,24.10
2022-09-09T10:25:36.163Z,25.40
2022-09-09T10:29:16.454Z,26.10
2022-09-09T10:32:40.148Z,26.00
2022-09-09T10:36:08.486Z,26.00
2022-09-09T10:39:37.821Z,25.60
2022-09-09T10:43:04.677Z,24.90
2022-09-09T10:46:31.496Z,24.50
2022-09-09T10:50:09.188Z,24.30
2022-09-09T10:53:37.953Z,24.30
2022-09-09T10:57:04.029Z,24.50
2022-09-09T11:00:28.252Z,24.50
2022-09-09T11:03:54.087Z,24.40
2022-09-09T11:07:23.085Z,23.90
2022-09-09T11:10:46.376Z,23.60
2022-09-09T11:14:11.338Z,23.50
2022-09-09T11:17:36.018Z,23.20
2022-09-09T11:21:00.444Z,22.70
2022-09-09T11:24:24.589Z,21.40
2022-09-09T11:27:55.475Z,19.90
2022-09-09T11:31:22.734Z,19.20
2022-09-09T11:34:51.596Z,18.80
2022-09-09T11:38:31.185Z,18.60
2022-09-09T11:41:54.092Z,18.30
2022-09-09T11:45:23.055Z,18.40
2022-09-09T11:48:45.192Z,18.60
2022-09-09T11:52:11.675Z,19.00
2022-09-09T11:55:33.806Z,19.30
2022-09-09T11:58:57.919Z,19.60
2022-09-09T12:02:22.952Z,19.60
2022-09-09T12:05:45.825Z,19.70
2022-09-09T12:09:08.929Z,19.80
2022-09-09T12:12:32.257Z,19.90
2022-09-09T12:15:56.090Z,20.10
2022-09-09T12:19:23.247Z,20.40
2022-09-09T12:22:58.282Z,20.80
2022-09-09T12:26:28.024Z,21.20
2022-09-09T12:54:24.255Z,20.90
2022-09-09T12:58:05.804Z,21.10
2022-09-09T13:05:40.890Z,21.20
2022-09-09T13:12:45.868Z,21.60
2022-09-09T13:16:22.762Z,21.60
2022-09-09T13:20:31.579Z,21.50
2022-09-09T13:28:25.925Z,21.60
2022-09-09T13:32:02.774Z,21.60
2022-09-09T13:35:40.366Z,22.00
2022-09-09T13:51:12.233Z,22.10
2022-09-09T13:54:34.260Z,21.90
2022-09-09T13:57:56.604Z,21.90
2022-09-09T14:01:18.551Z,22.00
2022-09-09T14:04:41.684Z,21.90
2022-09-09T14:08:04.543Z,21.90
2022-09-09T14:11:28.287Z,21.90
2022-09-09T14:14:50.023Z,22.00
2022-09-09T14:18:13.057Z,21.90
2022-09-09T14:21:36.194Z,22.00
2022-09-09T14:24:57.873Z,21.90
2022-09-09T14:28:25.891Z,21.70
2022-09-09T14:32:00.971Z,21.90
2022-09-09T14:35:22.882Z,22.20
2022-09-09T14:38:46.016Z,22.50
2022-09-09T14:42:07.921Z,22.50
2022-09-09T14:45:29.711Z,22.60
2022-09-09T14:48:51.922Z,22.70
2022-09-09T14:52:14.066Z,22.70
2022-09-09T14:55:37.644Z,22.60
2022-09-09T14:59:01.712Z,22.40
2022-09-09T15:02:23.376Z,22.20
2022-09-09T15:05:45.050Z,22.20
2022-09-09T15:09:06.970Z,22.10
2022-09-09T15:12:31.150Z,22.10
2022-09-09T15:15:53.007Z,22.00
2022-09-09T15:19:14.803Z,22.00
2022-09-09T15:22:36.461Z,22.00
2022-09-09T15:25:58.161Z,22.10
2022-09-09T15:29:21.275Z,22.00
2022-09-09T15:32:43.158Z,22.00
2022-09-09T15:36:15.753Z,22.30
2022-09-09T15:39:39.010Z,22.50
2022-09-09T15:43:00.916Z,22.50
2022-09-09T15:46:25.409Z,22.50
2022-09-09T15:49:47.192Z,22.20
2022-09-09T15:53:09.111Z,21.90
2022-09-09T15:56:31.176Z,21.60
2022-09-09T15:59:52.887Z,21.40
2022-09-09T16:03:15.924Z,21.20
2022-09-09T16:06:37.654Z,21.00
2022-09-09T16:09:59.621Z,20.80
2022-09-09T16:13:21.321Z,20.70
2022-09-09T16:16:43.080Z,20.60
2022-09-09T16:20:06.947Z,20.40
2022-09-09T16:23:28.652Z,20.40
2022-09-09T16:26:51.778Z,20.30
2022-09-09T16:30:13.795Z,20.30
2022-09-09T16:33:35.706Z,20.20
2022-09-09T16:36:58.859Z,20.20
2022-09-09T16:40:20.571Z,20.20
2022-09-09T16:43:42.314Z,20.10
2022-09-09T16:47:04.178Z,20.20
2022-09-09T16:50:25.943Z,20.10
2022-09-09T16:53:48.946Z,20.00
2022-09-09T16:57:10.627Z,20.00
2022-09-09T17:00:32.563Z,19.90
2022-09-09T17:03:57.534Z,19.80
2022-09-09T17:07:22.506Z,19.70
2022-09-09T17:10:45.572Z,19.60
2022-09-09T17:14:08.384Z,19.50
2022-09-09T17:17:31.995Z,19.30
2022-09-09T17:20:53.897Z,19.10
2022-09-09T17:24:15.723Z,19.00
2022-09-09T17:27:38.976Z,18.90
2022-09-09T17:31:01.133Z,18.80
2022-09-09T17:34:22.847Z,18.60
2022-09-09T17:37:44.576Z,18.50
2022-09-09T17:41:09.029Z,18.40
2022-09-09T17:44:32.062Z,18.30
2022-09-09T17:47:55.283Z,18.20
2022-09-09T17:51:17.804Z,18.10
2022-09-09T17:54:39.601Z,18.00
2022-09-09T17:58:01.277Z,17.90
2022-09-09T18:01:25.011Z,17.80
2022-09-09T18:04:49.372Z,17.70
2022-09-09T18:08:11.093Z,17.60
2022-09-09T18:11:34.101Z,17.50
2022-09-09T18:14:55.770Z,17.40
2022-09-09T18:18:18.845Z,17.20
2022-09-09T18:21:41.193Z,17.10
2022-09-09T18:25:03.783Z,17.10
2022-09-09T18:28:26.319Z,17.00
2022-09-09T18:31:48.287Z,17.10
2022-09-09T18:35:11.335Z,17.10
2022-09-09T18:38:33.218Z,17.10
2022-09-09T18:41:55.511Z,17.10
2022-09-09T18:45:17.188Z,17.10
2022-09-09T18:48:39.083Z,17.00
2022-09-09T18:52:02.591Z,17.00
2022-09-09T18:55:24.287Z,17.00
2022-09-09T18:58:45.939Z,17.10
2022-09-09T19:02:07.880Z,17.10
2022-09-09T19:05:30.785Z,17.10
2022-09-09T19:08:55.835Z,17.10
2022-09-09T19:12:19.212Z,17.10
2022-09-09T19:15:41.298Z,17.10
2022-09-09T19:19:05.860Z,17.10
2022-09-09T19:22:27.875Z,17.10
2022-09-09T19:25:51.234Z,17.00
2022-09-09T19:29:14.435Z,17.00
2022-09-09T19:32:52.581Z,16.90
2022-09-09T19:36:15.810Z,16.80
2022-09-09T19:39:37.562Z,16.70
2022-09-09T19:43:00.565Z,16.60
2022-09-09T19:46:22.348Z,16.50
2022-09-09T19:49:47.301Z,16.50
2022-09-09T19:53:09.258Z,16.50
2022-09-09T19:56:32.039Z,16.40
2022-09-09T19:59:55.094Z,16.50
2022-09-09T20:03:19.629Z,16.40
2022-09-09T20:06:42.801Z,16.30
2022-09-09T20:10:04.773Z,16.20
2022-09-09T20:13:26.582Z,16.10
2022-09-09T20:16:49.666Z,16.00
2022-09-09T20:20:14.131Z,16.00
2022-09-09T20:23:36.161Z,16.00
2022-09-09T20:26:58.204Z,15.90
2022-09-09T20:30:19.898Z,15.90
2022-09-09T20:33:43.545Z,15.90
2022-09-09T20:37:05.202Z,15.90
2022-09-09T20:40:29.316Z,15.80
2022-09-09T20:43:55.751Z,15.80
2022-09-09T20:47:17.428Z,15.80
2022-09-09T20:50:40.474Z,15.80
2022-09-09T20:54:02.872Z,15.80
2022-09-09T20:57:27.377Z,15.90
2022-09-09T21:00:56.381Z,15.90
2022-09-09T21:04:18.931Z,15.90
2022-09-09T21:07:41.980Z,15.80
2022-09-09T21:11:04.295Z,15.70
2022-09-09T21:14:26.149Z,15.60
2022-09-09T21:17:48.115Z,15.50
2022-09-09T21:21:09.947Z,15.40
2022-09-09T21:24:33.169Z,15.20
2022-09-09T21:27:54.866Z,15.10
2022-09-09T21:31:17.515Z,15.00
2022-09-09T21:34:39.230Z,14.90
2022-09-09T21:38:01.257Z,14.80
2022-09-09T21:41:24.595Z,14.70
2022-09-09T21:44:46.307Z,14.70
2022-09-09T21:48:09.494Z,14.60
2022-09-09T21:51:31.163Z,14.60
2022-09-09T21:54:52.858Z,14.50
2022-09-09T21:58:16.344Z,14.40
2022-09-09T22:01:38.192Z,14.40
2022-09-09T22:04:59.930Z,14.40
2022-09-09T22:08:21.667Z,14.50
2022-09-09T22:11:43.341Z,14.50
2022-09-09T22:15:06.963Z,14.50
2022-09-09T22:18:28.686Z,14.50
2022-09-09T22:21:50.462Z,14.50
2022-09-09T22:25:12.154Z,14.50
2022-09-09T22:28:34.289Z,14.50
2022-09-09T22:31:57.398Z,14.50
2022-09-09T22:35:19.055Z,14.60
2022-09-09T22:38:40.755Z,14.60
2022-09-09T22:42:02.858Z,14.60
2022-09-09T22:45:24.626Z,14.60
2022-09-09T22:48:47.626Z,14.70
2022-09-09T22:52:09.709Z,14.80
2022-09-09T22:55:31.469Z,14.90
2022-09-09T22:58:53.971Z,15.00
2022-09-09T23:02:15.689Z,15.00
2022-09-09T23:05:38.765Z,15.00
2022-09-09T23:09:02.231Z,15.10
2022-09-09T23:12:23.981Z,15.10
2022-09-09T23:15:45.735Z,15.20
2022-09-09T23:19:07.939Z,15.30
2022-09-09T23:22:31.389Z,15.30
2022-09-09T23:25:53.109Z,15.40
2022-09-09T23:29:14.871Z,15.40
2022-09-09T23:32:36.566Z,15.30
2022-09-09T23:35:58.855Z,15.20
2022-09-09T23:39:22.192Z,15.10
2022-09-09T23:42:44.995Z,14.90
2022-09-09T23:46:07.473Z,14.80
2022-09-09T23:49:29.470Z,14.70
2022-09-09T23:52:51.230Z,14.60
2022-09-09T23:56:14.743Z,14.60
2022-09-09T23:59:36.493Z,14.50
